sensor_id;sensor_type;location;lat;lon;timestamp;P1;durP1;ratioP1;P2;durP2;ratioP2
46845;SDS011;33947;46.804;134.252;2023-06-10T00:01:34;5.00;;;1.20;;
46845;SDS011;33947;46.804;134.252;2023-06-10T00:05:17;2.58;;;1.08;;
46845;SDS011;33947;46.804;134.252;2023-06-10T00:09:00;1.52;;;0.50;;
46845;SDS011;33947;46.804;134.252;2023-06-10T00:12:16;5.00;;;2.10;;
46845;SDS011;33947;46.804;134.252;2023-06-10T00:15:28;5.35;;;1.50;;
46845;SDS011;33947;46.804;134.252;2023-06-10T00:18:33;1.05;;;0.93;;
46845;SDS011;33947;46.804;134.252;2023-06-10T00:21:40;3.70;;;1.23;;
46845;SDS011;33947;46.804;134.252;2023-06-10T00:24:45;3.67;;;1.20;;
46845;SDS011;33947;46.804;134.252;2023-06-10T00:27:54;1.95;;;1.30;;
46845;SDS011;33947;46.804;134.252;2023-06-10T00:30:59;10.98;;;1.92;;
46845;SDS011;33947;46.804;134.252;2023-06-10T00:34:03;7.37;;;1.90;;
46845;SDS011;33947;46.804;134.252;2023-06-10T00:37:08;1.00;;;0.90;;
46845;SDS011;33947;46.804;134.252;2023-06-10T00:40:12;2.38;;;1.00;;
46845;SDS011;33947;46.804;134.252;2023-06-10T00:43:17;8.33;;;1.10;;
46845;SDS011;33947;46.804;134.252;2023-06-10T00:46:22;4.43;;;1.00;;
46845;SDS011;33947;46.804;134.252;2023-06-10T00:49:32;1.85;;;1.00;;
46845;SDS011;33947;46.804;134.252;2023-06-10T00:52:47;2.42;;;0.95;;
46845;SDS011;33947;46.804;134.252;2023-06-10T00:55:54;4.20;;;1.23;;
46845;SDS011;33947;46.804;134.252;2023-06-10T00:58:59;2.80;;;1.17;;
46845;SDS011;33947;46.804;134.252;2023-06-10T01:02:05;3.63;;;1.15;;
46845;SDS011;33947;46.804;134.252;2023-06-10T01:05:15;1.25;;;0.80;;
46845;SDS011;33947;46.804;134.252;2023-06-10T01:08:33;10.10;;;1.50;;
46845;SDS011;33947;46.804;134.252;2023-06-10T01:11:51;4.63;;;0.90;;
46845;SDS011;33947;46.804;134.252;2023-06-10T01:15:04;3.63;;;1.13;;
46845;SDS011;33947;46.804;134.252;2023-06-10T01:18:18;6.85;;;1.52;;
46845;SDS011;33947;46.804;134.252;2023-06-10T01:21:28;2.58;;;1.30;;
46845;SDS011;33947;46.804;134.252;2023-06-10T01:24:43;9.55;;;1.30;;
46845;SDS011;33947;46.804;134.252;2023-06-10T01:27:53;4.68;;;1.38;;
46845;SDS011;33947;46.804;134.252;2023-06-10T01:31:08;5.22;;;1.10;;
46845;SDS011;33947;46.804;134.252;2023-06-10T01:34:16;2.63;;;0.85;;
46845;SDS011;33947;46.804;134.252;2023-06-10T01:37:24;3.80;;;1.00;;
46845;SDS011;33947;46.804;134.252;2023-06-10T01:40:31;5.95;;;1.55;;
46845;SDS011;33947;46.804;134.252;2023-06-10T01:43:39;2.05;;;0.98;;
46845;SDS011;33947;46.804;134.252;2023-06-10T01:46:43;7.03;;;1.60;;
46845;SDS011;33947;46.804;134.252;2023-06-10T01:49:51;4.85;;;1.20;;
46845;SDS011;33947;46.804;134.252;2023-06-10T01:52:56;6.32;;;0.98;;
46845;SDS011;33947;46.804;134.252;2023-06-10T01:56:04;3.05;;;1.00;;
46845;SDS011;33947;46.804;134.252;2023-06-10T01:59:12;2.28;;;0.93;;
46845;SDS011;33947;46.804;134.252;2023-06-10T02:02:16;12.23;;;2.03;;
46845;SDS011;33947;46.804;134.252;2023-06-10T02:05:23;2.47;;;0.90;;
46845;SDS011;33947;46.804;134.252;2023-06-10T02:08:28;0.77;;;0.77;;
46845;SDS011;33947;46.804;134.252;2023-06-10T02:11:38;1.70;;;0.88;;
46845;SDS011;33947;46.804;134.252;2023-06-10T02:14:46;1.50;;;1.23;;
46845;SDS011;33947;46.804;134.252;2023-06-10T02:17:57;1.70;;;0.90;;
46845;SDS011;33947;46.804;134.252;2023-06-10T02:21:01;2.65;;;1.30;;
46845;SDS011;33947;46.804;134.252;2023-06-10T02:24:11;3.30;;;1.00;;
46845;SDS011;33947;46.804;134.252;2023-06-10T02:27:16;4.25;;;2.67;;
46845;SDS011;33947;46.804;134.252;2023-06-10T02:30:30;7.68;;;2.55;;
46845;SDS011;33947;46.804;134.252;2023-06-10T02:33:37;3.42;;;1.83;;
46845;SDS011;33947;46.804;134.252;2023-06-10T02:36:43;3.15;;;1.80;;
46845;SDS011;33947;46.804;134.252;2023-06-10T02:39:56;3.25;;;1.58;;
46845;SDS011;33947;46.804;134.252;2023-06-10T02:43:02;1.45;;;1.00;;
46845;SDS011;33947;46.804;134.252;2023-06-10T02:46:10;3.25;;;1.10;;
46845;SDS011;33947;46.804;134.252;2023-06-10T02:49:17;2.35;;;1.00;;
46845;SDS011;33947;46.804;134.252;2023-06-10T02:52:27;6.13;;;1.17;;
46845;SDS011;33947;46.804;134.252;2023-06-10T02:55:37;6.10;;;1.50;;
46845;SDS011;33947;46.804;134.252;2023-06-10T02:58:46;3.75;;;1.20;;
46845;SDS011;33947;46.804;134.252;2023-06-10T03:01:57;4.63;;;2.45;;
46845;SDS011;33947;46.804;134.252;2023-06-10T03:05:13;8.68;;;2.00;;
46845;SDS011;33947;46.804;134.252;2023-06-10T03:08:23;4.63;;;1.02;;
46845;SDS011;33947;46.804;134.252;2023-06-10T03:11:32;2.70;;;1.00;;
46845;SDS011;33947;46.804;134.252;2023-06-10T03:14:41;1.88;;;1.02;;
46845;SDS011;33947;46.804;134.252;2023-06-10T03:17:46;2.58;;;1.13;;
46845;SDS011;33947;46.804;134.252;2023-06-10T03:24:39;8.68;;;6.57;;
46845;SDS011;33947;46.804;134.252;2023-06-10T03:27:47;4.60;;;1.25;;
46845;SDS011;33947;46.804;134.252;2023-06-10T03:31:06;10.52;;;6.13;;
46845;SDS011;33947;46.804;134.252;2023-06-10T03:34:12;2.80;;;1.70;;
46845;SDS011;33947;46.804;134.252;2023-06-10T03:37:39;10.82;;;7.03;;
46845;SDS011;33947;46.804;134.252;2023-06-10T03:41:46;6.13;;;1.35;;
46845;SDS011;33947;46.804;134.252;2023-06-10T03:44:51;4.13;;;3.00;;
46845;SDS011;33947;46.804;134.252;2023-06-10T03:48:06;2.45;;;1.90;;
46845;SDS011;33947;46.804;134.252;2023-06-10T03:51:24;4.32;;;1.05;;
46845;SDS011;33947;46.804;134.252;2023-06-10T03:54:28;0.95;;;0.70;;
46845;SDS011;33947;46.804;134.252;2023-06-10T03:57:45;2.38;;;1.27;;
46845;SDS011;33947;46.804;134.252;2023-06-10T04:00:53;4.88;;;3.72;;
46845;SDS011;33947;46.804;134.252;2023-06-10T04:04:07;1.42;;;1.33;;
46845;SDS011;33947;46.804;134.252;2023-06-10T04:07:34;5.53;;;2.97;;
46845;SDS011;33947;46.804;134.252;2023-06-10T04:10:41;2.97;;;0.90;;
46845;SDS011;33947;46.804;134.252;2023-06-10T04:14:35;3.23;;;0.97;;
46845;SDS011;33947;46.804;134.252;2023-06-10T04:18:08;0.80;;;0.60;;
46845;SDS011;33947;46.804;134.252;2023-06-10T04:21:28;1.15;;;0.98;;
46845;SDS011;33947;46.804;134.252;2023-06-10T04:24:53;6.95;;;1.00;;
46845;SDS011;33947;46.804;134.252;2023-06-10T04:28:32;1.50;;;1.05;;
46845;SDS011;33947;46.804;134.252;2023-06-10T04:32:38;0.65;;;0.57;;
46845;SDS011;33947;46.804;134.252;2023-06-10T04:35:56;1.02;;;0.93;;
46845;SDS011;33947;46.804;134.252;2023-06-10T04:39:04;4.70;;;1.33;;
46845;SDS011;33947;46.804;134.252;2023-06-10T04:42:18;1.42;;;0.77;;
46845;SDS011;33947;46.804;134.252;2023-06-10T04:45:26;4.97;;;1.02;;
46845;SDS011;33947;46.804;134.252;2023-06-10T04:48:30;2.30;;;0.68;;
46845;SDS011;33947;46.804;134.252;2023-06-10T04:51:39;3.22;;;0.90;;
46845;SDS011;33947;46.804;134.252;2023-06-10T04:54:50;1.85;;;0.90;;
46845;SDS011;33947;46.804;134.252;2023-06-10T04:57:57;0.90;;;0.60;;
46845;SDS011;33947;46.804;134.252;2023-06-10T05:01:15;1.40;;;0.70;;
46845;SDS011;33947;46.804;134.252;2023-06-10T05:04:21;1.60;;;0.80;;
46845;SDS011;33947;46.804;134.252;2023-06-10T05:07:30;1.75;;;1.02;;
46845;SDS011;33947;46.804;134.252;2023-06-10T05:10:34;5.93;;;1.55;;
46845;SDS011;33947;46.804;134.252;2023-06-10T05:13:41;0.70;;;0.60;;
46845;SDS011;33947;46.804;134.252;2023-06-10T05:16:48;3.00;;;1.00;;
46845;SDS011;33947;46.804;134.252;2023-06-10T05:19:56;2.17;;;1.67;;
46845;SDS011;33947;46.804;134.252;2023-06-10T05:23:00;1.38;;;1.27;;
46845;SDS011;33947;46.804;134.252;2023-06-10T05:29:46;2.90;;;0.75;;
46845;SDS011;33947;46.804;134.252;2023-06-10T05:32:53;2.22;;;0.80;;
46845;SDS011;33947;46.804;134.252;2023-06-10T05:35:59;1.45;;;0.80;;
46845;SDS011;33947;46.804;134.252;2023-06-10T05:39:10;3.90;;;0.82;;
46845;SDS011;33947;46.804;134.252;2023-06-10T05:42:23;4.55;;;0.90;;
46845;SDS011;33947;46.804;134.252;2023-06-10T05:45:49;2.28;;;1.40;;
46845;SDS011;33947;46.804;134.252;2023-06-10T05:49:14;3.42;;;0.70;;
46845;SDS011;33947;46.804;134.252;2023-06-10T05:52:26;1.50;;;0.75;;
46845;SDS011;33947;46.804;134.252;2023-06-10T05:55:40;4.32;;;0.95;;
46845;SDS011;33947;46.804;134.252;2023-06-10T05:59:52;2.00;;;0.50;;
46845;SDS011;33947;46.804;134.252;2023-06-10T06:03:48;1.58;;;1.30;;
46845;SDS011;33947;46.804;134.252;2023-06-10T06:07:45;0.70;;;0.60;;
46845;SDS011;33947;46.804;134.252;2023-06-10T06:11:25;1.70;;;0.47;;
46845;SDS011;33947;46.804;134.252;2023-06-10T06:14:30;0.80;;;0.60;;
46845;SDS011;33947;46.804;134.252;2023-06-10T06:17:40;1.15;;;0.47;;
46845;SDS011;33947;46.804;134.252;2023-06-10T06:20:44;2.35;;;0.65;;
46845;SDS011;33947;46.804;134.252;2023-06-10T06:23:58;0.63;;;0.60;;
46845;SDS011;33947;46.804;134.252;2023-06-10T06:27:05;0.90;;;0.43;;
46845;SDS011;33947;46.804;134.252;2023-06-10T06:30:13;2.50;;;1.45;;
46845;SDS011;33947;46.804;134.252;2023-06-10T06:33:20;7.47;;;4.55;;
46845;SDS011;33947;46.804;134.252;2023-06-10T06:40:14;1.05;;;0.90;;
46845;SDS011;33947;46.804;134.252;2023-06-10T06:43:18;1.95;;;0.65;;
46845;SDS011;33947;46.804;134.252;2023-06-10T06:46:53;0.50;;;0.30;;
46845;SDS011;33947;46.804;134.252;2023-06-10T06:50:11;1.65;;;0.40;;
46845;SDS011;33947;46.804;134.252;2023-06-10T06:53:39;0.50;;;0.40;;
46845;SDS011;33947;46.804;134.252;2023-06-10T06:56:51;1.42;;;0.70;;
46845;SDS011;33947;46.804;134.252;2023-06-10T07:00:05;7.18;;;1.40;;
46845;SDS011;33947;46.804;134.252;2023-06-10T07:03:12;2.92;;;1.60;;
46845;SDS011;33947;46.804;134.252;2023-06-10T07:06:18;3.70;;;1.40;;
46845;SDS011;33947;46.804;134.252;2023-06-10T07:09:22;1.75;;;1.10;;
46845;SDS011;33947;46.804;134.252;2023-06-10T07:12:30;7.00;;;1.70;;
46845;SDS011;33947;46.804;134.252;2023-06-10T07:15:40;3.45;;;1.48;;
46845;SDS011;33947;46.804;134.252;2023-06-10T07:19:19;3.13;;;1.15;;
46845;SDS011;33947;46.804;134.252;2023-06-10T07:22:28;2.55;;;1.10;;
46845;SDS011;33947;46.804;134.252;2023-06-10T07:25:42;1.20;;;0.98;;
46845;SDS011;33947;46.804;134.252;2023-06-10T07:29:28;1.10;;;0.77;;
46845;SDS011;33947;46.804;134.252;2023-06-10T07:32:51;0.90;;;0.80;;
46845;SDS011;33947;46.804;134.252;2023-06-10T07:36:59;3.50;;;1.02;;
46845;SDS011;33947;46.804;134.252;2023-06-10T07:41:19;3.10;;;1.02;;
46845;SDS011;33947;46.804;134.252;2023-06-10T07:45:06;2.70;;;1.20;;
46845;SDS011;33947;46.804;134.252;2023-06-10T07:49:17;5.78;;;0.98;;
46845;SDS011;33947;46.804;134.252;2023-06-10T07:53:44;7.95;;;1.67;;
46845;SDS011;33947;46.804;134.252;2023-06-10T07:58:14;6.85;;;1.58;;
46845;SDS011;33947;46.804;134.252;2023-06-10T08:02:40;11.88;;;1.80;;
46845;SDS011;33947;46.804;134.252;2023-06-10T08:07:17;0.43;;;0.43;;
46845;SDS011;33947;46.804;134.252;2023-06-10T08:11:49;3.38;;;1.10;;
46845;SDS011;33947;46.804;134.252;2023-06-10T08:16:30;17.67;;;2.13;;
46845;SDS011;33947;46.804;134.252;2023-06-10T08:25:34;3.42;;;0.90;;
46845;SDS011;33947;46.804;134.252;2023-06-10T08:29:41;3.90;;;1.00;;
46845;SDS011;33947;46.804;134.252;2023-06-10T08:37:19;7.70;;;0.93;;
46845;SDS011;33947;46.804;134.252;2023-06-10T08:40:27;3.58;;;1.35;;
46845;SDS011;33947;46.804;134.252;2023-06-10T08:43:39;1.55;;;0.70;;
46845;SDS011;33947;46.804;134.252;2023-06-10T08:47:18;3.28;;;0.98;;
46845;SDS011;33947;46.804;134.252;2023-06-10T08:50:33;3.72;;;1.20;;
46845;SDS011;33947;46.804;134.252;2023-06-10T08:53:55;7.97;;;2.25;;
46845;SDS011;33947;46.804;134.252;2023-06-10T08:57:16;2.45;;;0.85;;
46845;SDS011;33947;46.804;134.252;2023-06-10T09:00:29;4.18;;;1.65;;
46845;SDS011;33947;46.804;134.252;2023-06-10T09:03:43;3.25;;;1.27;;
46845;SDS011;33947;46.804;134.252;2023-06-10T09:06:59;2.45;;;1.05;;
46845;SDS011;33947;46.804;134.252;2023-06-10T09:10:11;5.88;;;1.05;;
46845;SDS011;33947;46.804;134.252;2023-06-10T09:13:18;1.58;;;1.00;;
46845;SDS011;33947;46.804;134.252;2023-06-10T09:16:39;4.95;;;1.10;;
46845;SDS011;33947;46.804;134.252;2023-06-10T09:19:53;4.85;;;1.73;;
46845;SDS011;33947;46.804;134.252;2023-06-10T09:23:04;2.92;;;1.10;;
46845;SDS011;33947;46.804;134.252;2023-06-10T09:26:09;6.43;;;2.38;;
46845;SDS011;33947;46.804;134.252;2023-06-10T09:29:15;10.45;;;2.15;;
46845;SDS011;33947;46.804;134.252;2023-06-10T09:32:19;9.10;;;2.03;;
46845;SDS011;33947;46.804;134.252;2023-06-10T09:35:28;23.95;;;5.95;;
46845;SDS011;33947;46.804;134.252;2023-06-10T09:38:38;14.55;;;5.80;;
46845;SDS011;33947;46.804;134.252;2023-06-10T09:42:41;15.27;;;3.38;;
46845;SDS011;33947;46.804;134.252;2023-06-10T09:46:42;6.68;;;1.50;;
46845;SDS011;33947;46.804;134.252;2023-06-10T09:49:49;5.88;;;1.27;;
46845;SDS011;33947;46.804;134.252;2023-06-10T09:52:56;5.75;;;1.20;;
46845;SDS011;33947;46.804;134.252;2023-06-10T09:56:01;12.68;;;2.58;;
46845;SDS011;33947;46.804;134.252;2023-06-10T09:59:19;6.28;;;2.03;;
46845;SDS011;33947;46.804;134.252;2023-06-10T10:02:47;1.30;;;0.80;;
46845;SDS011;33947;46.804;134.252;2023-06-10T10:05:59;3.00;;;1.13;;
46845;SDS011;33947;46.804;134.252;2023-06-10T10:09:09;9.57;;;1.88;;
46845;SDS011;33947;46.804;134.252;2023-06-10T10:12:17;3.80;;;2.97;;
46845;SDS011;33947;46.804;134.252;2023-06-10T10:15:31;5.68;;;3.00;;
46845;SDS011;33947;46.804;134.252;2023-06-10T10:18:49;5.40;;;2.90;;
46845;SDS011;33947;46.804;134.252;2023-06-10T10:22:03;3.30;;;1.80;;
46845;SDS011;33947;46.804;134.252;2023-06-10T10:25:16;2.83;;;1.30;;
46845;SDS011;33947;46.804;134.252;2023-06-10T10:28:37;5.45;;;1.60;;
46845;SDS011;33947;46.804;134.252;2023-06-10T10:32:05;4.55;;;1.90;;
46845;SDS011;33947;46.804;134.252;2023-06-10T10:35:21;4.95;;;3.58;;
46845;SDS011;33947;46.804;134.252;2023-06-10T10:38:28;3.15;;;2.45;;
46845;SDS011;33947;46.804;134.252;2023-06-10T10:41:36;4.65;;;3.33;;
46845;SDS011;33947;46.804;134.252;2023-06-10T10:46:01;3.75;;;2.78;;
46845;SDS011;33947;46.804;134.252;2023-06-10T10:52:19;8.25;;;2.25;;
46845;SDS011;33947;46.804;134.252;2023-06-10T10:55:27;5.40;;;2.50;;
46845;SDS011;33947;46.804;134.252;2023-06-10T10:58:32;6.15;;;2.80;;
46845;SDS011;33947;46.804;134.252;2023-06-10T11:01:40;6.33;;;2.23;;
46845;SDS011;33947;46.804;134.252;2023-06-10T11:04:49;13.10;;;3.10;;
46845;SDS011;33947;46.804;134.252;2023-06-10T11:07:54;9.00;;;2.50;;
46845;SDS011;33947;46.804;134.252;2023-06-10T11:11:00;8.85;;;2.45;;
46845;SDS011;33947;46.804;134.252;2023-06-10T11:14:27;18.60;;;2.60;;
46845;SDS011;33947;46.804;134.252;2023-06-10T11:17:36;9.05;;;3.40;;
46845;SDS011;33947;46.804;134.252;2023-06-10T11:23:57;7.72;;;2.38;;
46845;SDS011;33947;46.804;134.252;2023-06-10T11:27:15;5.05;;;2.50;;
46845;SDS011;33947;46.804;134.252;2023-06-10T11:30:21;5.85;;;2.38;;
46845;SDS011;33947;46.804;134.252;2023-06-10T11:33:29;4.40;;;2.00;;
46845;SDS011;33947;46.804;134.252;2023-06-10T11:36:40;7.68;;;2.20;;
46845;SDS011;33947;46.804;134.252;2023-06-10T11:39:46;4.90;;;2.17;;
46845;SDS011;33947;46.804;134.252;2023-06-10T11:42:51;4.28;;;1.83;;
46845;SDS011;33947;46.804;134.252;2023-06-10T11:46:07;11.68;;;2.67;;
46845;SDS011;33947;46.804;134.252;2023-06-10T11:49:21;3.90;;;2.10;;
46845;SDS011;33947;46.804;134.252;2023-06-10T11:52:28;4.18;;;1.90;;
46845;SDS011;33947;46.804;134.252;2023-06-10T11:55:45;3.65;;;1.40;;
46845;SDS011;33947;46.804;134.252;2023-06-10T11:58:59;4.10;;;1.40;;
46845;SDS011;33947;46.804;134.252;2023-06-10T12:02:14;2.63;;;0.90;;
46845;SDS011;33947;46.804;134.252;2023-06-10T12:05:23;3.50;;;1.42;;
46845;SDS011;33947;46.804;134.252;2023-06-10T12:08:30;4.10;;;1.88;;
46845;SDS011;33947;46.804;134.252;2023-06-10T12:11:42;4.97;;;1.52;;
46845;SDS011;33947;46.804;134.252;2023-06-10T12:15:33;31.00;;;19.98;;
46845;SDS011;33947;46.804;134.252;2023-06-10T12:18:49;24.95;;;12.20;;
46845;SDS011;33947;46.804;134.252;2023-06-10T12:21:55;28.55;;;15.18;;
46845;SDS011;33947;46.804;134.252;2023-06-10T12:25:01;16.80;;;11.45;;
46845;SDS011;33947;46.804;134.252;2023-06-10T12:28:36;18.70;;;12.48;;
46845;SDS011;33947;46.804;134.252;2023-06-10T12:32:14;25.88;;;19.00;;
46845;SDS011;33947;46.804;134.252;2023-06-10T12:36:25;21.23;;;12.93;;
46845;SDS011;33947;46.804;134.252;2023-06-10T12:39:37;14.90;;;9.57;;
46845;SDS011;33947;46.804;134.252;2023-06-10T12:42:50;18.67;;;12.07;;
46845;SDS011;33947;46.804;134.252;2023-06-10T12:45:55;13.63;;;8.67;;
46845;SDS011;33947;46.804;134.252;2023-06-10T12:49:03;10.50;;;7.07;;
46845;SDS011;33947;46.804;134.252;2023-06-10T12:52:10;11.95;;;6.97;;
46845;SDS011;33947;46.804;134.252;2023-06-10T12:55:19;14.00;;;6.15;;
46845;SDS011;33947;46.804;134.252;2023-06-10T12:58:25;109.55;;;47.08;;
46845;SDS011;33947;46.804;134.252;2023-06-10T13:01:30;48.30;;;23.45;;
46845;SDS011;33947;46.804;134.252;2023-06-10T13:04:37;37.47;;;19.55;;
46845;SDS011;33947;46.804;134.252;2023-06-10T13:10:50;38.33;;;20.75;;
46845;SDS011;33947;46.804;134.252;2023-06-10T13:13:57;25.50;;;13.70;;
46845;SDS011;33947;46.804;134.252;2023-06-10T13:17:01;18.85;;;10.45;;
46845;SDS011;33947;46.804;134.252;2023-06-10T13:20:07;12.27;;;5.97;;
46845;SDS011;33947;46.804;134.252;2023-06-10T13:23:12;11.65;;;7.40;;
46845;SDS011;33947;46.804;134.252;2023-06-10T13:26:19;12.45;;;8.20;;
46845;SDS011;33947;46.804;134.252;2023-06-10T13:29:23;9.20;;;5.72;;
46845;SDS011;33947;46.804;134.252;2023-06-10T13:32:29;6.75;;;3.33;;
46845;SDS011;33947;46.804;134.252;2023-06-10T13:35:37;8.52;;;4.38;;
46845;SDS011;33947;46.804;134.252;2023-06-10T13:38:41;9.38;;;5.43;;
46845;SDS011;33947;46.804;134.252;2023-06-10T13:41:48;15.52;;;4.97;;
46845;SDS011;33947;46.804;134.252;2023-06-10T13:44:52;11.87;;;4.20;;
46845;SDS011;33947;46.804;134.252;2023-06-10T13:48:04;10.25;;;4.97;;
46845;SDS011;33947;46.804;134.252;2023-06-10T13:51:12;8.98;;;5.53;;
46845;SDS011;33947;46.804;134.252;2023-06-10T13:54:36;9.38;;;4.50;;
46845;SDS011;33947;46.804;134.252;2023-06-10T13:58:22;8.50;;;4.22;;
46845;SDS011;33947;46.804;134.252;2023-06-10T14:02:22;6.38;;;3.72;;
46845;SDS011;33947;46.804;134.252;2023-06-10T14:05:40;7.32;;;3.83;;
46845;SDS011;33947;46.804;134.252;2023-06-10T14:12:41;6.07;;;2.80;;
46845;SDS011;33947;46.804;134.252;2023-06-10T14:15:46;4.90;;;2.65;;
46845;SDS011;33947;46.804;134.252;2023-06-10T14:19:06;7.80;;;2.70;;
46845;SDS011;33947;46.804;134.252;2023-06-10T14:22:38;7.60;;;3.70;;
46845;SDS011;33947;46.804;134.252;2023-06-10T14:25:45;7.47;;;2.97;;
46845;SDS011;33947;46.804;134.252;2023-06-10T14:29:23;6.57;;;3.40;;
46845;SDS011;33947;46.804;134.252;2023-06-10T14:32:48;5.97;;;3.67;;
46845;SDS011;33947;46.804;134.252;2023-06-10T14:36:10;5.03;;;3.03;;
46845;SDS011;33947;46.804;134.252;2023-06-10T14:40:01;6.40;;;2.92;;
46845;SDS011;33947;46.804;134.252;2023-06-10T14:44:18;7.80;;;3.75;;
46845;SDS011;33947;46.804;134.252;2023-06-10T14:52:22;14.57;;;3.80;;
46845;SDS011;33947;46.804;134.252;2023-06-10T14:56:08;9.65;;;5.05;;
46845;SDS011;33947;46.804;134.252;2023-06-10T14:59:53;13.60;;;5.20;;
46845;SDS011;33947;46.804;134.252;2023-06-10T15:03:34;7.40;;;3.90;;
46845;SDS011;33947;46.804;134.252;2023-06-10T15:07:26;7.45;;;3.60;;
46845;SDS011;33947;46.804;134.252;2023-06-10T15:10:54;8.43;;;4.07;;
46845;SDS011;33947;46.804;134.252;2023-06-10T15:14:23;9.48;;;4.43;;
46845;SDS011;33947;46.804;134.252;2023-06-10T15:18:18;11.30;;;4.22;;
46845;SDS011;33947;46.804;134.252;2023-06-10T15:22:15;9.93;;;4.80;;
46845;SDS011;33947;46.804;134.252;2023-06-10T15:26:37;9.75;;;4.75;;
46845;SDS011;33947;46.804;134.252;2023-06-10T15:30:47;9.02;;;4.82;;
46845;SDS011;33947;46.804;134.252;2023-06-10T15:35:04;10.93;;;4.75;;
46845;SDS011;33947;46.804;134.252;2023-06-10T15:38:55;9.98;;;4.05;;
46845;SDS011;33947;46.804;134.252;2023-06-10T15:46:32;6.65;;;4.00;;
46845;SDS011;33947;46.804;134.252;2023-06-10T15:50:12;8.65;;;4.15;;
46845;SDS011;33947;46.804;134.252;2023-06-10T15:53:50;7.20;;;3.50;;
46845;SDS011;33947;46.804;134.252;2023-06-10T16:01:51;3.67;;;2.10;;
46845;SDS011;33947;46.804;134.252;2023-06-10T16:05:13;8.55;;;2.20;;
46845;SDS011;33947;46.804;134.252;2023-06-10T16:08:22;5.35;;;1.73;;
46845;SDS011;33947;46.804;134.252;2023-06-10T16:11:53;4.57;;;1.80;;
46845;SDS011;33947;46.804;134.252;2023-06-10T16:14:58;7.43;;;3.20;;
46845;SDS011;33947;46.804;134.252;2023-06-10T16:18:06;4.70;;;3.03;;
46845;SDS011;33947;46.804;134.252;2023-06-10T16:21:11;5.07;;;3.10;;
46845;SDS011;33947;46.804;134.252;2023-06-10T16:24:17;5.72;;;2.67;;
46845;SDS011;33947;46.804;134.252;2023-06-10T16:27:23;2.75;;;1.80;;
46845;SDS011;33947;46.804;134.252;2023-06-10T16:30:31;5.03;;;2.15;;
46845;SDS011;33947;46.804;134.252;2023-06-10T16:33:38;4.03;;;2.30;;
46845;SDS011;33947;46.804;134.252;2023-06-10T16:36:43;5.25;;;2.72;;
46845;SDS011;33947;46.804;134.252;2023-06-10T16:39:50;5.63;;;2.65;;
46845;SDS011;33947;46.804;134.252;2023-06-10T16:42:55;4.45;;;2.20;;
46845;SDS011;33947;46.804;134.252;2023-06-10T16:45:59;3.85;;;2.20;;
46845;SDS011;33947;46.804;134.252;2023-06-10T16:49:04;6.78;;;3.15;;
46845;SDS011;33947;46.804;134.252;2023-06-10T16:52:17;6.43;;;2.78;;
46845;SDS011;33947;46.804;134.252;2023-06-10T16:55:22;3.78;;;2.80;;
46845;SDS011;33947;46.804;134.252;2023-06-10T16:58:27;6.80;;;3.22;;
46845;SDS011;33947;46.804;134.252;2023-06-10T17:01:33;5.90;;;3.13;;
46845;SDS011;33947;46.804;134.252;2023-06-10T17:04:38;6.77;;;3.33;;
46845;SDS011;33947;46.804;134.252;2023-06-10T17:07:46;3.97;;;2.50;;
46845;SDS011;33947;46.804;134.252;2023-06-10T17:10:53;3.25;;;2.38;;
46845;SDS011;33947;46.804;134.252;2023-06-10T17:13:58;3.33;;;2.17;;
46845;SDS011;33947;46.804;134.252;2023-06-10T17:17:02;6.87;;;2.83;;
46845;SDS011;33947;46.804;134.252;2023-06-10T17:20:07;4.53;;;3.00;;
46845;SDS011;33947;46.804;134.252;2023-06-10T17:23:14;8.65;;;3.58;;
46845;SDS011;33947;46.804;134.252;2023-06-10T17:26:19;6.60;;;3.40;;
46845;SDS011;33947;46.804;134.252;2023-06-10T17:29:24;5.00;;;3.15;;
46845;SDS011;33947;46.804;134.252;2023-06-10T17:32:28;7.85;;;4.03;;
46845;SDS011;33947;46.804;134.252;2023-06-10T17:35:33;4.80;;;3.65;;
46845;SDS011;33947;46.804;134.252;2023-06-10T17:38:37;5.07;;;3.53;;
46845;SDS011;33947;46.804;134.252;2023-06-10T17:41:42;9.95;;;4.00;;
46845;SDS011;33947;46.804;134.252;2023-06-10T17:44:47;7.73;;;4.47;;
46845;SDS011;33947;46.804;134.252;2023-06-10T17:47:51;5.28;;;3.50;;
46845;SDS011;33947;46.804;134.252;2023-06-10T17:50:56;6.37;;;4.40;;
46845;SDS011;33947;46.804;134.252;2023-06-10T17:54:00;7.30;;;3.92;;
46845;SDS011;33947;46.804;134.252;2023-06-10T17:57:05;6.75;;;4.32;;
46845;SDS011;33947;46.804;134.252;2023-06-10T18:00:10;6.00;;;3.88;;
46845;SDS011;33947;46.804;134.252;2023-06-10T18:03:17;6.05;;;4.18;;
46845;SDS011;33947;46.804;134.252;2023-06-10T18:06:30;5.57;;;4.05;;
46845;SDS011;33947;46.804;134.252;2023-06-10T18:09:41;8.13;;;4.30;;
46845;SDS011;33947;46.804;134.252;2023-06-10T18:12:46;8.05;;;4.28;;
46845;SDS011;33947;46.804;134.252;2023-06-10T18:15:53;5.63;;;3.80;;
46845;SDS011;33947;46.804;134.252;2023-06-10T18:18:58;4.93;;;3.83;;
46845;SDS011;33947;46.804;134.252;2023-06-10T18:22:02;6.90;;;3.90;;
46845;SDS011;33947;46.804;134.252;2023-06-10T18:25:07;7.30;;;4.75;;
46845;SDS011;33947;46.804;134.252;2023-06-10T18:28:16;6.78;;;4.63;;
46845;SDS011;33947;46.804;134.252;2023-06-10T18:31:20;6.68;;;4.85;;
46845;SDS011;33947;46.804;134.252;2023-06-10T18:34:25;7.38;;;4.50;;
46845;SDS011;33947;46.804;134.252;2023-06-10T18:37:32;6.07;;;4.63;;
46845;SDS011;33947;46.804;134.252;2023-06-10T18:40:36;7.75;;;4.88;;
46845;SDS011;33947;46.804;134.252;2023-06-10T18:43:44;6.63;;;4.30;;
46845;SDS011;33947;46.804;134.252;2023-06-10T18:46:49;7.13;;;4.95;;
46845;SDS011;33947;46.804;134.252;2023-06-10T18:49:57;7.10;;;5.35;;
46845;SDS011;33947;46.804;134.252;2023-06-10T18:53:03;8.02;;;5.00;;
46845;SDS011;33947;46.804;134.252;2023-06-10T18:56:07;8.03;;;5.40;;
46845;SDS011;33947;46.804;134.252;2023-06-10T18:59:12;7.55;;;5.00;;
46845;SDS011;33947;46.804;134.252;2023-06-10T19:02:17;8.68;;;4.90;;
46845;SDS011;33947;46.804;134.252;2023-06-10T19:05:21;5.43;;;4.15;;
46845;SDS011;33947;46.804;134.252;2023-06-10T19:08:26;4.10;;;3.07;;
46845;SDS011;33947;46.804;134.252;2023-06-10T19:11:39;5.60;;;3.10;;
46845;SDS011;33947;46.804;134.252;2023-06-10T19:14:46;5.00;;;3.10;;
46845;SDS011;33947;46.804;134.252;2023-06-10T19:18:01;5.65;;;3.20;;
46845;SDS011;33947;46.804;134.252;2023-06-10T19:36:34;5.72;;;3.20;;
46845;SDS011;33947;46.804;134.252;2023-06-10T19:39:38;4.45;;;3.08;;
46845;SDS011;33947;46.804;134.252;2023-06-10T19:42:43;6.40;;;3.17;;
46845;SDS011;33947;46.804;134.252;2023-06-10T19:45:48;5.70;;;2.83;;
46845;SDS011;33947;46.804;134.252;2023-06-10T19:48:53;11.63;;;3.33;;
46845;SDS011;33947;46.804;134.252;2023-06-10T19:51:58;4.00;;;3.00;;
46845;SDS011;33947;46.804;134.252;2023-06-10T19:55:08;5.10;;;3.55;;
46845;SDS011;33947;46.804;134.252;2023-06-10T19:58:13;4.20;;;2.97;;
46845;SDS011;33947;46.804;134.252;2023-06-10T20:01:20;5.75;;;3.65;;
46845;SDS011;33947;46.804;134.252;2023-06-10T20:04:26;7.47;;;3.10;;
46845;SDS011;33947;46.804;134.252;2023-06-10T20:07:31;6.00;;;3.20;;
46845;SDS011;33947;46.804;134.252;2023-06-10T20:10:36;4.70;;;3.00;;